Terminal Aerodrome Forecast
Issued by NWS Jackson, MS

Home | Current Version | Previous Version | Text Only | Print | Product List | Glossary On
Versions: 1 2 3 4 5 6 7 8 9 10 11 12 13 14 15 16
000
FTUS44 KJAN 012116 AAB
TAFJAN
TAF AMD
KJAN 012116Z 0121/0218 33012G24KT P6SM TSRA SCT025 BKN035CB
     FM012230 34014KT P6SM SCT060
     FM020200 36008KT P6SM SKC=

USA.gov is the U.S. government's official web portal to all federal, state and local government web resources and services.